Leon Corners, Illinois
Current Conditions -  °F | °C
As of 8:35 AM on Saturday 25 Oct 2014 (Local Time) from KSQI Reporting Station
Overcast Overcast  
Wind Chill: 57°   Ceiling: 200
Heat Index: 57°   Visibility: 0.75mi
Dew Point: 54°   Wind: 9mph
Humidity: 88%   Direction: 290°WNW
Pressure: 29.99"   Gusts: NA
Location:  41.5909°N, 89.9498°W
Report Text: KSQI 251335Z AUTO 29008KT 3/4SM OVC002 14/12 A2999 RMK AO1
Loading
Personal Weather Stations






























Interactive Weather Map New forecast layout! Learn more

10-Day Weather Forecast

Advertisements
Track Severe Weather on mobile